createdAt,value
2023-04-28T00:00:43.092Z,97474.00
2023-04-28T00:03:11.508Z,97475.00
2023-04-28T00:05:39.947Z,97475.00
2023-04-28T00:08:08.337Z,97473.00
2023-04-28T00:10:37.832Z,97478.00
2023-04-28T00:13:06.108Z,97474.00
2023-04-28T00:15:34.357Z,97466.00
2023-04-28T00:18:02.570Z,97461.00
2023-04-28T00:20:30.684Z,97463.00
2023-04-28T00:22:58.935Z,97457.00
2023-04-28T00:25:27.067Z,97456.00
2023-04-28T00:27:56.511Z,97451.00
2023-04-28T00:30:25.209Z,97444.00
2023-04-28T00:32:53.468Z,97449.00
2023-04-28T00:35:22.011Z,97439.00
2023-04-28T00:37:50.337Z,97436.00
2023-04-28T00:40:18.472Z,97435.00
2023-04-28T00:42:46.581Z,97450.00
2023-04-28T00:45:16.075Z,97440.00
2023-04-28T00:47:44.462Z,97429.00
2023-04-28T00:50:13.452Z,97436.00
2023-04-28T00:52:41.889Z,97431.00
2023-04-28T00:55:11.136Z,97439.00
2023-04-28T00:57:40.090Z,97422.00
2023-04-28T01:00:10.094Z,97411.00
2023-04-28T01:02:40.042Z,97419.00
2023-04-28T01:05:10.709Z,97422.00
2023-04-28T01:07:39.403Z,97421.00
2023-04-28T01:10:10.586Z,97422.00
2023-04-28T01:12:38.784Z,97413.00
2023-04-28T01:15:13.067Z,97413.00
2023-04-28T01:17:42.966Z,97415.00
2023-04-28T01:20:12.218Z,97397.00
2023-04-28T01:22:40.767Z,97394.00
2023-04-28T01:25:11.090Z,97396.00
2023-04-28T01:27:42.300Z,97400.00
2023-04-28T01:30:11.491Z,97395.00
2023-04-28T01:32:40.445Z,97396.00
2023-04-28T01:35:09.437Z,97397.00
2023-04-28T01:37:37.982Z,97389.00
2023-04-28T01:40:08.283Z,97376.00
2023-04-28T01:42:37.894Z,97379.00
2023-04-28T01:45:07.272Z,97380.00
2023-04-28T01:47:35.426Z,97391.00
2023-04-28T01:50:03.796Z,97391.00
2023-04-28T01:52:32.018Z,97384.00
2023-04-28T01:55:00.312Z,97368.00
2023-04-28T01:57:29.693Z,97370.00
2023-04-28T02:00:00.590Z,97384.00
2023-04-28T02:02:29.590Z,97380.00
2023-04-28T02:04:58.956Z,97376.00
2023-04-28T02:07:27.108Z,97372.00
2023-04-28T02:09:55.320Z,97380.00
2023-04-28T02:12:23.977Z,97377.00
2023-04-28T02:14:52.481Z,97385.00
2023-04-28T02:17:22.898Z,97378.00
2023-04-28T02:19:57.523Z,97382.00
2023-04-28T02:22:26.034Z,97380.00
2023-04-28T02:24:54.127Z,97383.00
2023-04-28T02:27:22.841Z,97384.00
2023-04-28T02:29:51.644Z,97372.00
2023-04-28T02:32:19.865Z,97369.00
2023-04-28T02:34:55.087Z,97368.00
2023-04-28T02:37:24.757Z,97357.00
2023-04-28T02:39:53.337Z,97357.00
2023-04-28T02:42:22.250Z,97352.00
2023-04-28T02:44:50.411Z,97351.00
2023-04-28T02:47:18.556Z,97340.00
2023-04-28T02:49:46.989Z,97346.00
2023-04-28T02:52:19.442Z,97339.00
2023-04-28T02:54:48.954Z,97335.00
2023-04-28T02:57:18.165Z,97334.00
2023-04-28T02:59:46.481Z,97324.00
2023-04-28T03:02:14.823Z,97353.00
2023-04-28T03:04:43.221Z,97342.00
2023-04-28T03:07:11.419Z,97323.00
2023-04-28T03:09:42.382Z,97323.00
2023-04-28T03:12:10.727Z,97324.00
2023-04-28T03:14:38.857Z,97320.00
2023-04-28T03:17:07.536Z,97313.00
2023-04-28T03:19:35.669Z,97316.00
2023-04-28T03:22:03.784Z,97305.00
2023-04-28T03:24:33.330Z,97312.00
2023-04-28T03:27:03.680Z,97300.00
2023-04-28T03:29:32.071Z,97311.00
2023-04-28T03:32:00.327Z,97299.00
2023-04-28T03:34:28.908Z,97287.00
2023-04-28T03:36:57.376Z,97290.00
2023-04-28T03:39:30.651Z,97289.00
2023-04-28T03:41:59.051Z,97293.00
2023-04-28T03:44:40.520Z,97279.00
2023-04-28T03:47:09.092Z,97281.00
2023-04-28T03:49:38.097Z,97294.00
2023-04-28T03:52:06.301Z,97293.00
2023-04-28T03:54:35.553Z,97296.00
2023-04-28T03:57:04.634Z,97287.00
2023-04-28T03:59:34.686Z,97295.00
2023-04-28T04:02:04.431Z,97280.00
2023-04-28T04:04:33.271Z,97270.00
2023-04-28T04:07:02.057Z,97281.00
2023-04-28T04:09:30.972Z,97266.00
2023-04-28T04:12:01.133Z,97267.00
2023-04-28T04:14:29.410Z,97265.00
2023-04-28T04:16:57.567Z,97254.00
2023-04-28T04:19:27.985Z,97255.00
2023-04-28T04:21:56.778Z,97252.00
2023-04-28T04:24:25.159Z,97242.00
2023-04-28T04:26:53.492Z,97255.00
2023-04-28T04:29:37.894Z,97260.00
2023-04-28T04:32:12.981Z,97266.00
2023-04-28T04:34:43.546Z,97268.00
2023-04-28T04:37:12.486Z,97270.00
2023-04-28T04:40:00.853Z,97263.00
2023-04-28T04:42:33.312Z,97255.00
2023-04-28T04:45:09.730Z,97259.00
2023-04-28T04:47:38.667Z,97262.00
2023-04-28T04:50:10.538Z,97260.00
2023-04-28T04:52:39.182Z,97270.00
2023-04-28T04:55:11.199Z,97252.00
2023-04-28T04:57:41.655Z,97260.00
2023-04-28T05:00:24.475Z,97271.00
2023-04-28T05:02:54.614Z,97263.00
2023-04-28T05:05:24.795Z,97262.00
2023-04-28T05:08:06.292Z,97255.00
2023-04-28T05:10:35.825Z,97281.00
2023-04-28T05:13:05.024Z,97282.00
2023-04-28T05:15:33.363Z,97267.00
2023-04-28T05:18:20.257Z,97264.00
2023-04-28T05:20:49.910Z,97269.00
2023-04-28T05:23:21.487Z,97256.00
2023-04-28T05:25:49.675Z,97267.00
2023-04-28T05:28:20.091Z,97264.00
2023-04-28T05:30:50.696Z,97265.00
2023-04-28T05:33:18.849Z,97257.00
2023-04-28T05:35:50.558Z,97268.00
2023-04-28T05:38:18.837Z,97273.00
2023-04-28T05:40:48.918Z,97274.00
2023-04-28T05:43:18.688Z,97270.00
2023-04-28T05:45:47.013Z,97266.00
2023-04-28T05:48:16.163Z,97274.00
2023-04-28T05:50:45.105Z,97282.00
2023-04-28T05:53:14.911Z,97288.00
2023-04-28T05:55:43.129Z,97276.00
2023-04-28T05:58:11.673Z,97274.00
2023-04-28T06:00:40.131Z,97286.00
2023-04-28T06:03:11.197Z,97270.00
2023-04-28T06:05:40.581Z,97288.00
2023-04-28T06:08:08.978Z,97275.00
2023-04-28T06:10:41.531Z,97275.00
2023-04-28T06:13:09.679Z,97267.00
2023-04-28T06:15:38.198Z,97266.00
2023-04-28T06:18:07.358Z,97287.00
2023-04-28T06:20:35.665Z,97278.00
2023-04-28T06:23:05.005Z,97285.00
2023-04-28T06:25:33.308Z,97270.00
2023-04-28T06:28:02.909Z,97273.00
2023-04-28T06:30:31.399Z,97279.00
2023-04-28T06:32:59.594Z,97277.00
2023-04-28T06:35:29.497Z,97280.00
2023-04-28T06:37:57.743Z,97270.00
2023-04-28T06:40:25.883Z,97264.00
2023-04-28T06:42:57.748Z,97271.00
2023-04-28T06:45:35.030Z,97279.00
2023-04-28T06:48:03.258Z,97263.00
2023-04-28T06:50:31.473Z,97256.00
2023-04-28T06:52:59.687Z,97261.00
2023-04-28T06:55:31.038Z,97246.00
2023-04-28T06:58:00.158Z,97245.00
2023-04-28T07:00:28.472Z,97254.00
2023-04-28T07:02:58.194Z,97240.00
2023-04-28T07:05:26.956Z,97256.00
2023-04-28T07:07:55.151Z,97253.00
2023-04-28T07:10:23.319Z,97240.00
2023-04-28T07:12:52.353Z,97246.00
2023-04-28T07:15:20.822Z,97252.00
2023-04-28T07:17:49.035Z,97257.00
2023-04-28T07:20:18.859Z,97262.00
2023-04-28T07:22:47.038Z,97265.00
2023-04-28T07:25:15.559Z,97274.00
2023-04-28T07:27:43.817Z,97273.00
2023-04-28T07:30:25.606Z,97261.00
2023-04-28T07:32:54.656Z,97253.00
2023-04-28T07:35:24.314Z,97256.00
2023-04-28T07:37:52.574Z,97242.00
2023-04-28T07:40:21.166Z,97238.00
2023-04-28T07:42:49.400Z,97244.00
2023-04-28T07:45:17.874Z,97256.00
2023-04-28T07:47:46.020Z,97256.00
2023-04-28T07:50:14.548Z,97264.00
2023-04-28T07:52:44.496Z,97264.00
2023-04-28T07:55:12.642Z,97271.00
2023-04-28T07:57:42.231Z,97272.00
2023-04-28T08:00:11.921Z,97275.00
2023-04-28T08:02:41.127Z,97280.00
2023-04-28T08:05:10.956Z,97277.00
2023-04-28T08:07:39.378Z,97287.00
2023-04-28T08:10:13.166Z,97285.00
2023-04-28T08:12:42.283Z,97286.00
2023-04-28T08:15:11.650Z,97278.00
2023-04-28T08:17:40.230Z,97265.00
2023-04-28T08:20:10.720Z,97266.00
2023-04-28T08:22:38.964Z,97257.00
2023-04-28T08:25:10.740Z,97248.00
2023-04-28T08:27:40.011Z,97244.00
2023-04-28T08:30:10.333Z,97226.00
2023-04-28T08:32:38.617Z,97219.00
2023-04-28T08:35:08.506Z,97213.00
2023-04-28T08:37:37.091Z,97206.00
2023-04-28T08:40:09.706Z,97202.00
2023-04-28T08:42:39.801Z,97206.00
2023-04-28T08:45:13.760Z,97206.00
2023-04-28T08:47:45.873Z,97205.00
2023-04-28T08:50:15.319Z,97209.00
2023-04-28T08:52:44.214Z,97200.00
2023-04-28T08:55:15.654Z,97201.00
2023-04-28T08:57:49.780Z,97200.00
2023-04-28T09:00:18.550Z,97199.00
2023-04-28T09:02:46.926Z,97205.00
2023-04-28T09:05:15.920Z,97203.00
2023-04-28T09:07:48.775Z,97213.00
2023-04-28T09:10:22.632Z,97215.00
2023-04-28T09:12:54.143Z,97210.00
2023-04-28T09:15:34.406Z,97214.00
2023-04-28T09:18:03.733Z,97211.00
2023-04-28T09:20:34.045Z,97212.00
2023-04-28T09:23:17.431Z,97195.00
2023-04-28T09:26:00.908Z,97194.00
2023-04-28T09:28:30.855Z,97188.00
2023-04-28T09:30:59.045Z,97193.00
2023-04-28T09:33:27.834Z,97184.00
2023-04-28T09:35:56.489Z,97193.00
2023-04-28T09:38:25.133Z,97208.00
2023-04-28T09:41:01.266Z,97197.00
2023-04-28T09:43:32.862Z,97204.00
2023-04-28T09:46:02.940Z,97194.00
2023-04-28T09:48:33.938Z,97208.00
2023-04-28T09:51:03.663Z,97217.00
2023-04-28T09:53:32.953Z,97193.00
2023-04-28T09:56:05.083Z,97198.00
2023-04-28T09:58:39.025Z,97197.00
2023-04-28T10:01:11.224Z,97199.00
2023-04-28T10:03:41.442Z,97197.00
2023-04-28T10:06:09.716Z,97200.00
2023-04-28T10:08:41.898Z,97200.00
2023-04-28T10:11:13.476Z,97200.00
2023-04-28T10:13:44.280Z,97178.00
2023-04-28T10:16:13.287Z,97184.00
2023-04-28T10:18:42.899Z,97184.00
2023-04-28T10:21:13.715Z,97178.00
2023-04-28T10:24:01.626Z,97174.00
2023-04-28T10:27:16.417Z,97166.00
2023-04-28T10:29:46.541Z,97163.00
2023-04-28T10:32:20.959Z,97161.00
2023-04-28T10:34:49.608Z,97157.00
2023-04-28T10:37:18.991Z,97169.00
2023-04-28T10:40:34.202Z,97153.00
2023-04-28T10:43:02.860Z,97148.00
2023-04-28T10:46:06.339Z,97149.00
2023-04-28T10:49:08.390Z,97141.00
2023-04-28T10:51:37.546Z,97152.00
2023-04-28T10:54:19.135Z,97161.00
2023-04-28T10:57:23.064Z,97162.00
2023-04-28T10:59:52.177Z,97167.00
2023-04-28T11:02:43.699Z,97160.00
2023-04-28T11:05:20.380Z,97161.00
2023-04-28T11:08:34.774Z,97165.00
2023-04-28T11:11:20.783Z,97150.00
2023-04-28T11:13:50.629Z,97152.00
2023-04-28T11:16:25.840Z,97167.00
2023-04-28T11:19:00.028Z,97162.00
2023-04-28T11:21:29.344Z,97162.00
2023-04-28T11:23:59.710Z,97165.00
2023-04-28T11:26:30.056Z,97168.00
2023-04-28T11:28:59.653Z,97167.00
2023-04-28T11:31:28.818Z,97163.00
2023-04-28T11:34:06.115Z,97169.00
2023-04-28T11:36:37.523Z,97169.00
2023-04-28T11:39:07.910Z,97158.00
2023-04-28T11:41:37.141Z,97174.00
2023-04-28T11:44:13.229Z,97165.00
2023-04-28T11:46:51.664Z,97166.00
2023-04-28T11:49:21.723Z,97172.00
2023-04-28T11:51:50.285Z,97173.00
2023-04-28T11:54:23.794Z,97168.00
2023-04-28T11:56:53.443Z,97165.00
2023-04-28T11:59:27.136Z,97166.00
2023-04-28T12:01:59.148Z,97169.00
2023-04-28T12:04:35.868Z,97160.00
2023-04-28T12:07:07.133Z,97164.00
2023-04-28T12:09:36.269Z,97160.00
2023-04-28T12:12:07.229Z,97148.00
2023-04-28T12:14:57.320Z,97160.00
2023-04-28T12:17:27.275Z,97162.00
2023-04-28T12:19:57.918Z,97155.00
2023-04-28T12:22:27.283Z,97171.00
2023-04-28T12:25:07.838Z,97175.00
2023-04-28T12:27:39.189Z,97135.00
2023-04-28T12:30:25.975Z,97165.00
2023-04-28T12:32:55.822Z,97164.00
2023-04-28T12:35:26.858Z,97157.00
2023-04-28T12:37:58.391Z,97147.00
2023-04-28T12:40:26.975Z,97143.00
2023-04-28T12:42:55.285Z,97151.00
2023-04-28T12:45:23.488Z,97155.00
2023-04-28T12:47:51.956Z,97161.00
2023-04-28T12:50:20.315Z,97166.00
2023-04-28T12:52:49.814Z,97146.00
2023-04-28T12:55:18.155Z,97136.00
2023-04-28T12:57:46.365Z,97143.00
2023-04-28T13:00:17.134Z,97141.00
2023-04-28T13:02:45.885Z,97152.00
2023-04-28T13:05:14.519Z,97151.00
2023-04-28T13:07:43.001Z,97160.00
2023-04-28T13:10:13.652Z,97156.00
2023-04-28T13:12:42.439Z,97143.00
2023-04-28T13:15:12.622Z,97138.00
2023-04-28T13:17:40.835Z,97135.00
2023-04-28T13:20:10.971Z,97115.00
2023-04-28T13:22:39.330Z,97132.00
2023-04-28T13:25:09.374Z,97127.00
2023-04-28T13:27:40.103Z,97138.00
2023-04-28T13:30:11.473Z,97132.00
2023-04-28T13:32:39.721Z,97142.00
2023-04-28T13:35:09.493Z,97137.00
2023-04-28T13:37:42.555Z,97119.00
2023-04-28T13:40:12.234Z,97126.00
2023-04-28T13:42:41.709Z,97135.00
2023-04-28T13:45:10.851Z,97133.00
2023-04-28T13:47:42.361Z,97126.00
2023-04-28T13:50:11.036Z,97131.00
2023-04-28T13:52:39.232Z,97131.00
2023-04-28T13:55:08.220Z,97125.00
2023-04-28T13:57:36.899Z,97124.00
2023-04-28T14:00:08.510Z,97114.00
2023-04-28T14:02:37.471Z,97116.00
2023-04-28T14:05:06.891Z,97112.00
2023-04-28T14:07:38.171Z,97114.00
2023-04-28T14:10:07.049Z,97116.00
2023-04-28T14:12:35.450Z,97105.00
2023-04-28T14:15:03.672Z,97100.00
2023-04-28T14:17:34.799Z,97096.00
2023-04-28T14:20:07.294Z,97096.00
2023-04-28T14:22:35.769Z,97094.00
2023-04-28T14:25:03.928Z,97110.00
2023-04-28T14:27:32.983Z,97100.00
2023-04-28T14:30:02.104Z,97099.00
2023-04-28T14:32:30.324Z,97108.00
2023-04-28T14:35:01.010Z,97092.00
2023-04-28T14:37:29.223Z,97105.00
2023-04-28T14:39:57.559Z,97102.00
2023-04-28T14:42:32.066Z,97092.00
2023-04-28T14:45:00.845Z,97095.00
2023-04-28T14:47:29.089Z,97087.00
2023-04-28T14:49:58.999Z,97074.00
2023-04-28T14:52:29.089Z,97081.00
2023-04-28T14:54:58.866Z,97089.00
2023-04-28T14:57:27.300Z,97082.00
2023-04-28T14:59:55.931Z,97073.00
2023-04-28T15:02:29.171Z,97076.00
2023-04-28T15:04:59.290Z,97061.00
2023-04-28T15:07:31.282Z,97053.00
2023-04-28T15:10:00.227Z,97069.00
2023-04-28T15:12:30.191Z,97075.00
2023-04-28T15:14:58.568Z,97072.00
2023-04-28T15:17:27.099Z,97058.00
2023-04-28T15:19:55.270Z,97070.00
2023-04-28T15:22:24.907Z,97076.00
2023-04-28T15:24:53.278Z,97082.00
2023-04-28T15:27:21.399Z,97089.00
2023-04-28T15:29:49.562Z,97081.00
2023-04-28T15:32:18.176Z,97078.00
2023-04-28T15:34:46.321Z,97080.00
2023-04-28T15:37:42.855Z,97079.00
2023-04-28T15:40:14.570Z,97071.00
2023-04-28T15:42:48.599Z,97075.00
2023-04-28T15:45:18.319Z,97077.00
2023-04-28T15:47:49.299Z,97088.00
2023-04-28T15:50:19.845Z,97094.00
2023-04-28T15:52:51.132Z,97092.00
2023-04-28T15:55:22.007Z,97086.00
2023-04-28T15:57:51.076Z,97078.00
2023-04-28T16:00:19.553Z,97077.00
2023-04-28T16:02:48.527Z,97089.00
2023-04-28T16:05:16.861Z,97084.00
2023-04-28T16:07:45.340Z,97095.00
2023-04-28T16:10:17.393Z,97091.00
2023-04-28T16:12:45.641Z,97086.00
2023-04-28T16:15:14.758Z,97090.00
2023-04-28T16:17:44.190Z,97089.00
2023-04-28T16:20:13.348Z,97077.00
2023-04-28T16:22:45.057Z,97070.00
2023-04-28T16:25:14.592Z,97058.00
2023-04-28T16:27:43.010Z,97056.00
2023-04-28T16:30:11.997Z,97076.00
2023-04-28T16:32:40.962Z,97072.00
2023-04-28T16:35:14.972Z,97068.00
2023-04-28T16:37:44.057Z,97066.00
2023-04-28T16:40:15.019Z,97063.00
2023-04-28T16:42:43.518Z,97071.00
2023-04-28T16:45:13.177Z,97065.00
2023-04-28T16:47:43.496Z,97058.00
2023-04-28T16:50:14.481Z,97052.00
2023-04-28T16:52:43.105Z,97051.00
2023-04-28T16:55:11.602Z,97048.00
2023-04-28T16:57:41.558Z,97056.00
2023-04-28T17:00:11.881Z,97055.00
2023-04-28T17:02:40.255Z,97057.00
2023-04-28T17:05:10.099Z,97062.00
2023-04-28T17:07:38.283Z,97063.00
2023-04-28T17:10:08.163Z,97052.00
2023-04-28T17:12:36.547Z,97059.00
2023-04-28T17:15:08.153Z,97055.00
2023-04-28T17:17:37.388Z,97054.00
2023-04-28T17:20:08.332Z,97054.00
2023-04-28T17:22:36.854Z,97029.00
2023-04-28T17:25:06.536Z,97029.00
2023-04-28T17:27:34.706Z,97033.00
2023-04-28T17:30:02.969Z,97021.00
2023-04-28T17:32:33.298Z,97028.00
2023-04-28T17:35:01.568Z,97016.00
2023-04-28T17:37:31.283Z,97027.00
2023-04-28T17:39:59.468Z,97037.00
2023-04-28T17:42:30.123Z,97018.00
2023-04-28T17:44:58.536Z,97028.00
2023-04-28T17:47:26.737Z,97016.00
2023-04-28T17:49:56.299Z,97012.00
2023-04-28T17:52:24.479Z,97021.00
2023-04-28T17:54:52.837Z,97017.00
2023-04-28T17:57:21.291Z,97020.00
2023-04-28T17:59:51.078Z,97024.00
2023-04-28T18:02:19.724Z,97018.00
2023-04-28T18:04:48.433Z,97025.00
2023-04-28T18:07:18.170Z,97022.00
2023-04-28T18:09:46.403Z,97024.00
2023-04-28T18:12:14.534Z,97033.00
2023-04-28T18:14:44.390Z,97026.00
2023-04-28T18:17:12.781Z,97032.00
2023-04-28T18:19:42.016Z,97041.00
2023-04-28T18:22:10.245Z,97046.00
2023-04-28T18:24:39.780Z,97049.00
2023-04-28T18:27:07.900Z,97057.00
2023-04-28T18:29:36.382Z,97076.00
2023-04-28T18:32:04.647Z,97071.00
2023-04-28T18:34:32.945Z,97075.00
2023-04-28T18:37:01.351Z,97059.00
2023-04-28T18:39:29.565Z,97077.00
2023-04-28T18:41:59.536Z,97077.00
2023-04-28T18:44:28.416Z,97067.00
2023-04-28T18:46:56.774Z,97072.00
2023-04-28T18:49:25.759Z,97082.00
2023-04-28T18:51:54.117Z,97082.00
2023-04-28T18:54:22.328Z,97081.00
2023-04-28T18:56:52.479Z,97086.00
2023-04-28T18:59:22.086Z,97097.00
2023-04-28T19:01:50.339Z,97096.00
2023-04-28T19:04:18.711Z,97099.00
2023-04-28T19:06:47.459Z,97107.00
2023-04-28T19:09:15.793Z,97099.00
2023-04-28T19:11:44.197Z,97105.00
2023-04-28T19:14:12.615Z,97103.00
2023-04-28T19:16:42.639Z,97120.00
2023-04-28T19:19:11.135Z,97124.00
2023-04-28T19:21:45.201Z,97109.00
2023-04-28T19:24:13.772Z,97111.00
2023-04-28T19:26:42.193Z,97114.00
2023-04-28T19:29:11.826Z,97103.00
2023-04-28T19:31:41.446Z,97133.00
2023-04-28T19:34:09.734Z,97135.00
2023-04-28T19:36:38.086Z,97137.00
2023-04-28T19:39:06.400Z,97128.00
2023-04-28T19:41:37.268Z,97141.00
2023-04-28T19:44:05.499Z,97133.00
2023-04-28T19:46:33.736Z,97137.00
2023-04-28T19:49:03.598Z,97135.00
2023-04-28T19:51:32.529Z,97144.00
2023-04-28T19:54:00.818Z,97155.00
2023-04-28T19:56:29.242Z,97160.00
2023-04-28T19:58:58.646Z,97152.00
2023-04-28T20:01:26.949Z,97141.00
2023-04-28T20:03:55.351Z,97155.00
2023-04-28T20:06:25.103Z,97150.00
2023-04-28T20:08:53.290Z,97160.00
2023-04-28T20:11:21.632Z,97156.00
2023-04-28T20:13:50.580Z,97152.00
2023-04-28T20:16:20.439Z,97161.00
2023-04-28T20:18:49.213Z,97168.00
2023-04-28T20:21:17.893Z,97184.00
2023-04-28T20:23:47.634Z,97175.00
2023-04-28T20:26:16.813Z,97178.00
2023-04-28T20:28:47.087Z,97181.00
2023-04-28T20:31:16.222Z,97179.00
2023-04-28T20:33:44.423Z,97181.00
2023-04-28T20:36:14.202Z,97176.00
2023-04-28T20:38:42.389Z,97177.00
2023-04-28T20:41:12.102Z,97170.00
2023-04-28T20:43:41.033Z,97170.00
2023-04-28T20:46:11.189Z,97183.00
2023-04-28T20:48:39.769Z,97183.00
2023-04-28T20:51:08.060Z,97176.00
2023-04-28T20:53:36.497Z,97167.00
2023-04-28T20:56:04.861Z,97159.00
2023-04-28T20:58:35.166Z,97166.00
2023-04-28T21:01:03.646Z,97170.00
2023-04-28T21:03:32.235Z,97163.00
2023-04-28T21:06:00.586Z,97151.00
2023-04-28T21:08:29.759Z,97166.00
2023-04-28T21:10:58.046Z,97149.00
2023-04-28T21:13:26.239Z,97158.00
2023-04-28T21:15:56.012Z,97163.00
2023-04-28T21:18:24.256Z,97157.00
2023-04-28T21:20:54.544Z,97159.00
2023-04-28T21:23:22.675Z,97163.00
2023-04-28T21:25:51.079Z,97162.00
2023-04-28T21:28:19.446Z,97150.00
2023-04-28T21:30:47.553Z,97152.00
2023-04-28T21:33:17.056Z,97138.00
2023-04-28T21:35:45.550Z,97133.00
2023-04-28T21:38:13.720Z,97150.00
2023-04-28T21:40:42.117Z,97147.00
2023-04-28T21:43:10.496Z,97148.00
2023-04-28T21:45:38.912Z,97145.00
2023-04-28T21:48:07.967Z,97153.00
2023-04-28T21:50:37.927Z,97134.00
2023-04-28T21:53:06.133Z,97147.00
2023-04-28T21:55:34.262Z,97155.00
2023-04-28T21:58:02.632Z,97164.00
2023-04-28T22:00:31.146Z,97155.00
2023-04-28T22:02:59.726Z,97137.00
2023-04-28T22:05:29.128Z,97143.00
2023-04-28T22:07:58.680Z,97151.00
2023-04-28T22:10:27.110Z,97135.00
2023-04-28T22:12:55.415Z,97136.00
2023-04-28T22:15:23.718Z,97136.00
2023-04-28T22:17:51.983Z,97134.00
2023-04-28T22:20:20.481Z,97127.00
2023-04-28T22:22:48.740Z,97140.00
2023-04-28T22:25:18.472Z,97136.00
2023-04-28T22:27:46.736Z,97143.00
2023-04-28T22:30:15.643Z,97136.00
2023-04-28T22:32:44.585Z,97141.00
2023-04-28T22:35:13.756Z,97138.00
2023-04-28T22:37:43.453Z,97139.00
2023-04-28T22:40:12.193Z,97142.00
2023-04-28T22:42:44.519Z,97143.00
2023-04-28T22:45:13.327Z,97152.00
2023-04-28T22:47:42.787Z,97146.00
2023-04-28T22:50:12.467Z,97138.00
2023-04-28T22:52:40.743Z,97135.00
2023-04-28T22:55:09.744Z,97154.00
2023-04-28T22:57:37.944Z,97142.00
2023-04-28T23:00:09.490Z,97135.00
2023-04-28T23:02:37.872Z,97128.00
2023-04-28T23:05:07.216Z,97129.00
2023-04-28T23:07:35.335Z,97118.00
2023-04-28T23:10:05.029Z,97116.00
2023-04-28T23:12:33.190Z,97119.00
2023-04-28T23:15:01.482Z,97128.00
2023-04-28T23:17:31.021Z,97125.00
2023-04-28T23:19:59.199Z,97122.00
2023-04-28T23:22:27.448Z,97125.00
2023-04-28T23:24:55.646Z,97124.00
2023-04-28T23:27:23.752Z,97121.00
2023-04-28T23:29:52.099Z,97123.00
2023-04-28T23:32:20.467Z,97122.00
2023-04-28T23:34:49.920Z,97138.00
2023-04-28T23:37:18.071Z,97119.00
2023-04-28T23:39:46.232Z,97115.00
2023-04-28T23:42:14.369Z,97118.00
2023-04-28T23:44:42.507Z,97110.00
2023-04-28T23:47:10.580Z,97109.00
2023-04-28T23:49:38.837Z,97112.00
2023-04-28T23:52:08.551Z,97117.00
2023-04-28T23:54:36.752Z,97114.00
2023-04-28T23:57:05.257Z,97099.00
2023-04-28T23:59:33.460Z,97103.00
